createdAt,value
2022-09-21T00:02:55.006Z,1022.90
2022-09-21T00:08:02.339Z,1022.82
2022-09-21T00:13:09.394Z,1022.84
2022-09-21T00:18:16.604Z,1022.88
2022-09-21T00:23:24.000Z,1022.92
2022-09-21T00:28:31.018Z,1022.90
2022-09-21T00:33:38.182Z,1022.91
2022-09-21T00:38:45.451Z,1022.96
2022-09-21T00:43:52.621Z,1022.91
2022-09-21T00:48:59.868Z,1022.85
2022-09-21T00:54:07.174Z,1022.80
2022-09-21T00:59:14.346Z,1022.72
2022-09-21T01:04:21.550Z,1022.70
2022-09-21T01:09:28.753Z,1022.69
2022-09-21T01:14:36.039Z,1022.64
2022-09-21T01:19:43.229Z,1022.63
2022-09-21T01:24:50.513Z,1022.68
2022-09-21T01:29:57.674Z,1022.64
2022-09-21T01:35:04.921Z,1022.68
2022-09-21T01:40:12.180Z,1022.67
2022-09-21T01:45:19.339Z,1022.73
2022-09-21T01:50:26.596Z,1022.66
2022-09-21T01:55:33.913Z,1022.65
2022-09-21T02:00:41.140Z,1022.63
2022-09-21T02:05:48.307Z,1022.63
2022-09-21T02:10:55.542Z,1022.64
2022-09-21T02:16:02.798Z,1022.64
2022-09-21T02:21:09.876Z,1022.58
2022-09-21T02:26:17.149Z,1022.62
2022-09-21T02:31:24.422Z,1022.58
2022-09-21T02:36:31.651Z,1022.57
2022-09-21T02:41:38.936Z,1022.56
2022-09-21T02:46:46.182Z,1022.53
2022-09-21T02:51:53.368Z,1022.58
2022-09-21T02:57:00.655Z,1022.63
2022-09-21T03:02:07.803Z,1022.67
2022-09-21T03:07:14.989Z,1022.62
2022-09-21T03:12:22.214Z,1022.64
2022-09-21T03:17:29.450Z,1022.64
2022-09-21T03:22:36.638Z,1022.64
2022-09-21T03:27:43.908Z,1022.68
2022-09-21T03:32:51.222Z,1022.65
2022-09-21T03:37:58.406Z,1022.67
2022-09-21T03:43:05.678Z,1022.73
2022-09-21T03:48:12.841Z,1022.77
2022-09-21T03:53:20.061Z,1022.79
2022-09-21T03:58:27.236Z,1022.75
2022-09-21T04:03:34.452Z,1022.80
2022-09-21T04:08:43.679Z,1022.81
2022-09-21T04:13:48.815Z,1022.82
2022-09-21T04:18:56.045Z,1022.86
2022-09-21T04:24:03.213Z,1022.87
2022-09-21T04:29:10.636Z,1022.92
2022-09-21T04:34:17.638Z,1022.99
2022-09-21T04:39:24.911Z,1022.98
2022-09-21T04:44:32.222Z,1023.05
2022-09-21T04:49:39.332Z,1023.01
2022-09-21T04:54:46.593Z,1023.05
2022-09-21T04:59:53.890Z,1023.03
2022-09-21T05:05:01.119Z,1023.04
2022-09-21T05:10:08.301Z,1023.14
2022-09-21T05:15:15.528Z,1023.15
2022-09-21T05:20:22.751Z,1023.17
2022-09-21T05:25:29.932Z,1023.18
2022-09-21T05:30:37.184Z,1023.22
2022-09-21T05:35:44.377Z,1023.15
2022-09-21T05:40:51.641Z,1023.24
2022-09-21T05:45:58.955Z,1023.19
2022-09-21T05:51:06.165Z,1023.21
2022-09-21T05:56:13.352Z,1023.27
2022-09-21T06:01:20.617Z,1023.28
2022-09-21T06:06:27.860Z,1023.28
2022-09-21T06:11:35.080Z,1023.34
2022-09-21T06:16:42.422Z,1023.34
2022-09-21T06:21:49.501Z,1023.35
2022-09-21T06:26:56.760Z,1023.34
2022-09-21T06:32:03.966Z,1023.31
2022-09-21T06:37:11.245Z,1023.32
2022-09-21T06:42:18.455Z,1023.31
2022-09-21T06:47:25.773Z,1023.31
2022-09-21T06:52:32.899Z,1023.30
2022-09-21T06:57:40.135Z,1023.30
2022-09-21T07:02:47.327Z,1023.28
2022-09-21T07:07:54.477Z,1023.25
2022-09-21T07:13:01.717Z,1023.24
2022-09-21T07:18:08.951Z,1023.28
2022-09-21T07:23:16.096Z,1023.28
2022-09-21T07:28:23.296Z,1023.31
2022-09-21T07:33:35.228Z,1023.31
2022-09-21T07:38:37.675Z,1023.34
2022-09-21T07:43:44.818Z,1023.33
2022-09-21T07:48:52.069Z,1023.33
2022-09-21T07:53:59.210Z,1023.36
2022-09-21T07:59:06.501Z,1023.36
2022-09-21T08:04:13.698Z,1023.36
2022-09-21T08:09:20.864Z,1023.30
2022-09-21T08:14:28.088Z,1023.29
2022-09-21T08:19:35.321Z,1023.27
2022-09-21T08:24:42.468Z,1023.26
2022-09-21T08:29:49.730Z,1023.25
2022-09-21T08:34:56.977Z,1023.21
2022-09-21T08:40:04.268Z,1023.18
2022-09-21T08:45:11.461Z,1023.19
2022-09-21T08:50:18.813Z,1023.24
2022-09-21T08:55:26.045Z,1023.22
2022-09-21T09:00:33.399Z,1023.12
2022-09-21T09:05:40.585Z,1023.11
2022-09-21T09:10:47.954Z,1023.03
2022-09-21T09:15:55.231Z,1022.97
2022-09-21T09:21:02.394Z,1022.98
2022-09-21T09:26:09.549Z,1022.93
2022-09-21T09:31:16.812Z,1022.85
2022-09-21T09:36:46.647Z,1022.74
2022-09-21T09:41:31.274Z,1022.70
2022-09-21T09:46:38.596Z,1022.61
2022-09-21T09:51:45.956Z,1022.56
2022-09-21T09:56:53.163Z,1022.52
2022-09-21T10:02:00.397Z,1022.40
2022-09-21T10:07:07.733Z,1022.32
2022-09-21T10:12:14.806Z,1022.21
2022-09-21T10:17:22.002Z,1022.16
2022-09-21T10:22:29.188Z,1022.11
2022-09-21T10:27:36.420Z,1022.03
2022-09-21T10:32:43.683Z,1021.94
2022-09-21T10:37:56.698Z,1021.85
2022-09-21T10:43:03.828Z,1021.79
2022-09-21T10:48:11.104Z,1021.74
2022-09-21T10:53:18.299Z,1021.64
2022-09-21T10:58:25.440Z,1021.59
2022-09-21T11:03:32.607Z,1021.58
2022-09-21T11:08:39.877Z,1021.55
2022-09-21T11:13:47.007Z,1021.51
2022-09-21T11:18:54.215Z,1021.38
2022-09-21T11:24:01.430Z,1021.40
2022-09-21T11:29:08.569Z,1021.34
2022-09-21T11:34:15.848Z,1021.23
2022-09-21T11:39:23.166Z,1021.13
2022-09-21T11:44:30.362Z,1021.10
2022-09-21T11:49:37.628Z,1021.07
2022-09-21T11:54:44.871Z,1020.92
2022-09-21T11:59:52.098Z,1020.86
2022-09-21T12:04:59.427Z,1020.87
2022-09-21T12:10:10.285Z,1020.79
2022-09-21T12:15:13.948Z,1020.77
2022-09-21T12:20:21.492Z,1020.70
2022-09-21T12:25:28.842Z,1020.69
2022-09-21T12:30:36.062Z,1020.63
2022-09-21T12:35:43.408Z,1020.62
2022-09-21T12:40:50.560Z,1020.61
2022-09-21T12:45:57.791Z,1020.52
2022-09-21T12:51:06.261Z,1020.54
2022-09-21T12:56:12.148Z,1020.48
2022-09-21T13:01:19.501Z,1020.46
2022-09-21T13:06:26.520Z,1020.40
2022-09-21T13:11:33.756Z,1020.39
2022-09-21T13:16:41.030Z,1020.31
2022-09-21T13:21:48.125Z,1020.29
2022-09-21T13:26:55.385Z,1020.29
2022-09-21T13:32:02.640Z,1020.19
2022-09-21T13:37:09.850Z,1020.13
2022-09-21T13:42:17.009Z,1020.12
2022-09-21T13:47:24.214Z,1020.05
2022-09-21T13:52:31.444Z,1020.07
2022-09-21T13:57:38.656Z,1020.03
2022-09-21T14:02:45.895Z,1020.01
2022-09-21T14:07:52.972Z,1019.95
2022-09-21T14:13:00.167Z,1019.99
2022-09-21T14:18:07.376Z,1020.02
2022-09-21T14:23:14.589Z,1020.00
2022-09-21T14:28:21.848Z,1020.02
2022-09-21T14:33:29.005Z,1020.05
2022-09-21T14:38:36.227Z,1020.00
2022-09-21T14:43:43.407Z,1019.99
2022-09-21T14:48:50.634Z,1020.01
2022-09-21T14:53:57.942Z,1020.00
2022-09-21T14:59:05.097Z,1020.05
2022-09-21T15:04:12.336Z,1019.93
2022-09-21T15:09:19.580Z,1019.95
2022-09-21T15:14:26.839Z,1019.92
2022-09-21T15:19:34.065Z,1019.90
2022-09-21T15:24:41.359Z,1019.94
2022-09-21T15:29:48.633Z,1019.89
2022-09-21T15:34:56.087Z,1019.91
2022-09-21T15:40:03.552Z,1019.86
2022-09-21T15:45:10.716Z,1019.85
2022-09-21T15:50:17.959Z,1019.85
2022-09-21T15:55:25.152Z,1019.93
2022-09-21T16:00:32.543Z,1019.95
2022-09-21T16:05:39.879Z,1020.03
2022-09-21T16:10:47.116Z,1020.01
2022-09-21T16:15:54.498Z,1020.08
2022-09-21T16:21:01.578Z,1020.09
2022-09-21T16:26:08.793Z,1020.10
2022-09-21T16:31:16.132Z,1020.17
2022-09-21T16:36:23.269Z,1020.22
2022-09-21T16:41:30.454Z,1020.26
2022-09-21T16:46:37.694Z,1020.32
2022-09-21T16:51:44.864Z,1020.35
2022-09-21T16:56:52.073Z,1020.36
2022-09-21T17:01:59.370Z,1020.40
2022-09-21T17:07:06.492Z,1020.40
2022-09-21T17:12:13.684Z,1020.46
2022-09-21T17:17:20.908Z,1020.54
2022-09-21T17:22:28.112Z,1020.56
2022-09-21T17:27:35.297Z,1020.64
2022-09-21T17:32:42.512Z,1020.64
2022-09-21T17:37:49.739Z,1020.67
2022-09-21T17:42:56.912Z,1020.82
2022-09-21T17:48:04.130Z,1020.82
2022-09-21T17:53:11.317Z,1020.88
2022-09-21T17:58:18.568Z,1021.01
2022-09-21T18:03:25.803Z,1021.08
2022-09-21T18:08:33.039Z,1021.11
2022-09-21T18:13:40.259Z,1021.12
2022-09-21T18:18:47.504Z,1021.18
2022-09-21T18:23:54.698Z,1021.23
2022-09-21T18:29:12.627Z,1021.30
2022-09-21T18:34:09.377Z,1021.27
2022-09-21T18:39:16.966Z,1021.35
2022-09-21T18:44:24.467Z,1021.44
2022-09-21T18:49:31.714Z,1021.52
2022-09-21T18:54:38.904Z,1021.54
2022-09-21T18:59:46.114Z,1021.56
2022-09-21T19:04:53.351Z,1021.59
2022-09-21T19:10:00.827Z,1021.58
2022-09-21T19:15:12.115Z,1021.59
2022-09-21T19:20:15.391Z,1021.61
2022-09-21T19:25:22.640Z,1021.61
2022-09-21T19:30:30.415Z,1021.67
2022-09-21T19:35:37.673Z,1021.68
2022-09-21T19:40:44.971Z,1021.68
2022-09-21T19:45:52.285Z,1021.74
2022-09-21T19:50:59.399Z,1021.71
2022-09-21T19:56:06.587Z,1021.68
2022-09-21T20:01:13.824Z,1021.69
2022-09-21T20:06:20.985Z,1021.68
2022-09-21T20:11:28.141Z,1021.66
2022-09-21T20:16:35.433Z,1021.62
2022-09-21T20:21:42.608Z,1021.69
2022-09-21T20:26:49.841Z,1021.57
2022-09-21T20:31:57.113Z,1021.63
2022-09-21T20:37:04.392Z,1021.70
2022-09-21T20:42:11.530Z,1021.69
2022-09-21T20:47:18.694Z,1021.73
2022-09-21T20:52:25.854Z,1021.75
2022-09-21T20:57:33.136Z,1021.84
2022-09-21T21:02:40.376Z,1021.86
2022-09-21T21:07:47.675Z,1021.87
2022-09-21T21:12:54.850Z,1021.86
2022-09-21T21:18:02.060Z,1021.86
2022-09-21T21:23:09.282Z,1021.92
2022-09-21T21:28:16.494Z,1021.97
2022-09-21T21:33:23.668Z,1021.92
2022-09-21T21:38:31.621Z,1021.98
2022-09-21T21:43:38.820Z,1022.01
2022-09-21T21:48:46.112Z,1021.97
2022-09-21T21:53:53.304Z,1021.95
2022-09-21T21:59:00.482Z,1021.97
2022-09-21T22:04:07.819Z,1022.01
2022-09-21T22:09:15.057Z,1022.02
2022-09-21T22:14:22.157Z,1022.02
2022-09-21T22:19:29.382Z,1021.96
2022-09-21T22:24:36.644Z,1021.94
2022-09-21T22:29:43.847Z,1021.87
2022-09-21T22:34:51.079Z,1021.94
2022-09-21T22:39:58.334Z,1021.92
2022-09-21T22:45:05.564Z,1021.91
2022-09-21T22:50:12.770Z,1021.94
2022-09-21T22:55:20.024Z,1021.95
2022-09-21T23:00:27.321Z,1021.91
2022-09-21T23:05:34.477Z,1021.90
2022-09-21T23:10:41.729Z,1021.94
2022-09-21T23:15:48.914Z,1021.98
2022-09-21T23:20:56.128Z,1021.99
2022-09-21T23:26:03.394Z,1021.94
2022-09-21T23:31:10.631Z,1021.92
2022-09-21T23:36:17.860Z,1021.93
2022-09-21T23:41:25.205Z,1021.93
2022-09-21T23:46:32.483Z,1021.87
2022-09-21T23:51:39.577Z,1021.87
2022-09-21T23:56:46.878Z,1021.85
